Matanuska — WN4201 — position and weather

sailwx.info

Track history (hours):
 
Tides and Currents Weather Stations Pressure Air Temp Water Temp Dewpoint Dewpoint Depression Visibility Wind Speed Wind Dir Waves Ship Positions

Matanuska

Owner: ALASKA MARINE HIGHWAY SYSTEM DEPARTMENT OF TRANSPORTATION, Anchorage, AK. More information available from US FCC via Universal Licensing System and Coast Guard Vessel Documentation Center.

Last reported at 2020-Jul-14 00:00 UTC. Time now 2020-Jul-14 12:40 UTC.
Position N 57°54' W 134°54'.

Type: Passenger vessel. MMSI: 338195000.

Wind from 180 at 17 knots

Barometer 1019.3 mb
Air temperature 16.1 ° C
Water temperature 10.6 ° C

Date/timePositionNaut miles runAvg speedWind from/ knotsBaromVisibWave heightAir tempDewpointWater temp
2020-Jul-14 00:00N 57°54' W 134°54'274 6.8 180 / 171019.3 16.1 10.6
2020-Jul-12 07:31N 54°06' W 130°21'11515.3
2020-Jul-12 00:00N 52°33' W 128°28'1912.5
2020-Jul-11 22:31N 52°15' W 128°20'1510.3
2020-Jul-11 21:01N 52°04' W 128°02'2914.7
2020-Jul-11 19:01N 51°36' W 127°53'12415.4
2020-Jul-11 10:57N 50°16' W 125°23'2713.7
2020-Jul-11 09:00N 49°53' W 125°01'1616.2
2020-Jul-11 08:00N 49°41' W 124°44'7015.6
2020-Jul-11 03:30N 49°01' W 123°16'816.3
2020-Jul-11 03:00N 48°55' W 123°06'816.4
2020-Jul-11 02:30N 48°50' W 122°57'816.1
2020-Jul-11 02:00N 48°46' W 122°46'10 9.8
2020-Jul-11 01:00N 48°43' W 122°32'1 0.3
2020-Jul-10 22:28N 48°43' W 122°31'0 0.0
2020-Jul-10 19:14N 48°43' W 122°31'0 0.0
2020-Jul-10 18:50N 48°43' W 122°31'0 0.0
2020-Jul-10 15:59N 48°43' W 122°31'0 0.0
2020-Jul-10 14:59N 48°43' W 122°31'9 6.2
2020-Jul-10 13:30N 48°42' W 122°44'2617.0
2020-Jul-10 12:00N 48°57' W 123°15'1716.7
2020-Jul-10 11:00N 49°10' W 123°32'4116.0
2020-Jul-10 08:26N 49°30' W 124°27'2211.2
2020-Jul-10 06:30N 49°46' W 124°50'4 8.8
2020-Jul-10 06:00N 49°49' W 124°55'5 9.8
2020-Jul-10 05:30N 49°52' W 125°01'13614.3
2020-Jul-09 20:01N 51°13' W 127°52'5714.2
2020-Jul-09 16:01N 52°09' W 128°08'1110.7
2020-Jul-09 15:00N 52°15' W 128°23'1212.2
2020-Jul-09 14:00N 52°27' W 128°28'10414.9
2020-Jul-09 07:00N 53°53' W 130°06'1515.4
2020-Jul-09 06:00N 54°06' W 130°21'12612.6
2020-Jul-08 20:00N 55°48' W 132°30'124 5.0 250 / 131015.2 5.4 15.0 11.1
2020-Jul-07 19:00N 57°24' W 134°54'   360 / 41015.2 5.4 14.4 7.2
2020-Jul-05 10:30N 54°39' W 130°46'17214.3
2020-Jul-04 22:30N 52°14' W 128°11'2911.7
2020-Jul-04 20:01N 51°46' W 127°55'816.4
2020-Jul-04 19:31N 51°38' W 127°53'1616.4
2020-Jul-04 18:31N 51°22' W 127°52'11215.8
2020-Jul-04 11:24N 50°18' W 125°25'13215.7
2020-Jul-04 03:00N 48°49' W 122°55'1616.5
2020-Jul-04 02:01N 48°38' W 122°37'  
Track history (hours):
 
Tides and Currents Weather Stations Pressure Air Temp Water Temp Dewpoint Dewpoint Depression Visibility Wind Speed Wind Dir Waves Ship Positions

Matanuska

Owner: ALASKA MARINE HIGHWAY SYSTEM DEPARTMENT OF TRANSPORTATION, Anchorage, AK. More information available from US FCC via Universal Licensing System and Coast Guard Vessel Documentation Center.

Last reported at 2020-Jul-14 00:00 UTC. Time now 2020-Jul-14 12:40 UTC.
Position N 57°54' W 134°54'.

Type: Passenger vessel. MMSI: 338195000.

Wind from 180 at 17 knots

Barometer 1019.3 mb
Air temperature 16.1 ° C
Water temperature 10.6 ° C

Date/timePositionNaut miles runAvg speedWind from/ knotsBaromVisibWave heightAir tempDewpointWater temp
2020-Jul-14 00:00N 57°54' W 134°54'274 6.8 180 / 171019.3 16.1 10.6
2020-Jul-12 07:31N 54°06' W 130°21'11515.3
2020-Jul-12 00:00N 52°33' W 128°28'1912.5
2020-Jul-11 22:31N 52°15' W 128°20'1510.3
2020-Jul-11 21:01N 52°04' W 128°02'2914.7
2020-Jul-11 19:01N 51°36' W 127°53'12415.4
2020-Jul-11 10:57N 50°16' W 125°23'2713.7
2020-Jul-11 09:00N 49°53' W 125°01'1616.2
2020-Jul-11 08:00N 49°41' W 124°44'7015.6
2020-Jul-11 03:30N 49°01' W 123°16'816.3
2020-Jul-11 03:00N 48°55' W 123°06'816.4
2020-Jul-11 02:30N 48°50' W 122°57'816.1
2020-Jul-11 02:00N 48°46' W 122°46'10 9.8
2020-Jul-11 01:00N 48°43' W 122°32'1 0.3
2020-Jul-10 22:28N 48°43' W 122°31'0 0.0
2020-Jul-10 19:14N 48°43' W 122°31'0 0.0
2020-Jul-10 18:50N 48°43' W 122°31'0 0.0
2020-Jul-10 15:59N 48°43' W 122°31'0 0.0
2020-Jul-10 14:59N 48°43' W 122°31'9 6.2
2020-Jul-10 13:30N 48°42' W 122°44'2617.0
2020-Jul-10 12:00N 48°57' W 123°15'1716.7
2020-Jul-10 11:00N 49°10' W 123°32'4116.0
2020-Jul-10 08:26N 49°30' W 124°27'2211.2
2020-Jul-10 06:30N 49°46' W 124°50'4 8.8
2020-Jul-10 06:00N 49°49' W 124°55'5 9.8
2020-Jul-10 05:30N 49°52' W 125°01'13614.3
2020-Jul-09 20:01N 51°13' W 127°52'5714.2
2020-Jul-09 16:01N 52°09' W 128°08'1110.7
2020-Jul-09 15:00N 52°15' W 128°23'1212.2
2020-Jul-09 14:00N 52°27' W 128°28'10414.9
2020-Jul-09 07:00N 53°53' W 130°06'1515.4
2020-Jul-09 06:00N 54°06' W 130°21'12612.6
2020-Jul-08 20:00N 55°48' W 132°30'124 5.0 250 / 131015.2 5.4 15.0 11.1
2020-Jul-07 19:00N 57°24' W 134°54'   360 / 41015.2 5.4 14.4 7.2
2020-Jul-05 10:30N 54°39' W 130°46'17214.3
2020-Jul-04 22:30N 52°14' W 128°11'2911.7
2020-Jul-04 20:01N 51°46' W 127°55'816.4
2020-Jul-04 19:31N 51°38' W 127°53'1616.4
2020-Jul-04 18:31N 51°22' W 127°52'11215.8
2020-Jul-04 11:24N 50°18' W 125°25'13215.7
2020-Jul-04 03:00N 48°49' W 122°55'1616.5
2020-Jul-04 02:01N 48°38' W 122°37'  

Dump ship's entire track history